createdAt,value
2018-06-19T03:01:12.428Z,89.32
2018-06-19T03:02:13.296Z,89.51
2018-06-19T03:03:12.709Z,89.41
2018-06-19T03:04:12.612Z,88.98
2018-06-19T03:05:12.688Z,88.98
2018-06-19T03:06:14.507Z,89.27
2018-06-19T03:07:13.249Z,89.47
2018-06-19T03:08:13.435Z,89.85
2018-06-19T03:09:13.513Z,89.56
2018-06-19T03:10:14.072Z,89.47
2018-06-19T03:11:13.937Z,89.94
2018-06-19T03:12:11.666Z,90.61
2018-06-19T03:13:14.756Z,90.33
2018-06-19T03:14:14.458Z,90.61
2018-06-19T03:15:14.650Z,90.90
2018-06-19T03:16:15.499Z,90.81
2018-06-19T03:17:15.209Z,91.19
2018-06-19T03:18:15.001Z,91.38
2018-06-19T03:19:14.882Z,91.28
2018-06-19T03:20:15.363Z,91.38
2018-06-19T03:21:16.512Z,90.81
2018-06-19T03:22:16.180Z,90.81
2018-06-19T03:23:15.747Z,90.42
2018-06-19T03:24:16.196Z,90.81
2018-06-19T03:25:16.611Z,90.52
2018-06-19T03:26:16.482Z,91.57
2018-06-19T03:27:16.788Z,91.28
2018-06-19T03:28:16.121Z,90.42
2018-06-19T03:29:14.359Z,90.33
2018-06-19T03:30:14.743Z,90.42
2018-06-19T03:31:14.635Z,89.94
2018-06-19T03:32:15.080Z,90.14
2018-06-19T03:33:15.225Z,90.33
2018-06-19T03:34:15.307Z,90.09
2018-06-19T03:35:15.678Z,90.76
2018-06-19T03:36:15.755Z,90.76
2018-06-19T03:37:15.942Z,90.47
2018-06-19T03:38:16.028Z,91.28
2018-06-19T03:39:16.311Z,91.53
2018-06-19T03:40:16.415Z,90.76
2018-06-19T03:41:16.575Z,90.61
2018-06-19T03:42:16.642Z,91.00
2018-06-19T03:43:16.873Z,90.90
2018-06-19T03:44:17.075Z,90.81
2018-06-19T03:45:17.263Z,91.48
2018-06-19T03:46:17.415Z,91.86
2018-06-19T03:47:17.729Z,91.67
2018-06-19T03:48:17.952Z,90.71
2018-06-19T03:49:18.038Z,90.33
2018-06-19T03:50:18.117Z,91.09
2018-06-19T03:51:18.256Z,91.86
2018-06-19T03:52:18.505Z,90.81
2018-06-19T03:53:18.690Z,90.71
2018-06-19T03:54:18.818Z,90.14
2018-06-19T03:55:19.027Z,89.85
2018-06-19T03:56:19.142Z,90.14
2018-06-19T03:57:19.322Z,89.75
2018-06-19T03:58:19.471Z,91.00
2018-06-19T03:59:19.656Z,91.28
2018-06-19T04:00:19.884Z,91.38
2018-06-19T04:01:20.059Z,91.38
2018-06-19T04:02:20.156Z,92.34
2018-06-19T04:03:20.280Z,92.15
2018-06-19T04:04:20.457Z,92.05
2018-06-19T04:05:20.619Z,91.67
2018-06-19T04:06:20.875Z,90.71
2018-06-19T04:07:20.989Z,90.33
2018-06-19T04:08:21.221Z,89.94
2018-06-19T04:09:21.407Z,90.04
2018-06-19T04:10:21.650Z,90.23
2018-06-19T04:11:21.781Z,90.04
2018-06-19T04:12:21.982Z,90.52
2018-06-19T04:13:22.161Z,90.52
2018-06-19T04:14:22.356Z,91.28
2018-06-19T04:15:22.527Z,91.57
2018-06-19T04:16:22.730Z,92.05
2018-06-19T04:17:22.901Z,92.15
2018-06-19T04:18:22.948Z,92.05
2018-06-19T04:19:23.153Z,92.05
2018-06-19T04:20:23.392Z,91.96
2018-06-19T04:21:23.510Z,92.05
2018-06-19T04:22:23.754Z,92.24
2018-06-19T04:23:23.867Z,92.34
2018-06-19T04:24:23.982Z,92.34
2018-06-19T04:25:24.111Z,92.00
2018-06-19T04:26:24.534Z,91.96
2018-06-19T04:27:24.610Z,92.63
2018-06-19T04:28:24.710Z,92.05
2018-06-19T04:29:24.933Z,92.39
2018-06-19T04:30:25.078Z,92.19
2018-06-19T04:31:25.217Z,92.24
2018-06-19T04:32:25.522Z,92.68
2018-06-19T04:33:25.715Z,92.24
2018-06-19T04:34:25.824Z,92.19
2018-06-19T04:35:26.016Z,91.86
2018-06-19T04:36:26.341Z,92.10
2018-06-19T04:37:26.384Z,91.62
2018-06-19T04:38:26.649Z,91.81
2018-06-19T04:39:26.865Z,91.33
2018-06-19T04:40:26.976Z,91.33
2018-06-19T04:41:27.059Z,91.24
2018-06-19T04:42:27.516Z,91.33
2018-06-19T04:43:27.571Z,91.33
2018-06-19T04:44:27.625Z,91.33
2018-06-19T04:45:27.840Z,91.33
2018-06-19T04:46:27.982Z,91.24
2018-06-19T04:47:28.072Z,91.52
2018-06-19T04:48:28.479Z,91.52
2018-06-19T04:49:28.495Z,91.33
2018-06-19T04:50:28.615Z,90.85
2018-06-19T04:51:28.768Z,90.28
2018-06-19T04:52:28.996Z,91.33
2018-06-19T04:53:29.157Z,91.05
2018-06-19T04:54:29.335Z,90.75
2018-06-19T04:55:29.528Z,90.85
2018-06-19T04:56:29.765Z,90.85
2018-06-19T04:57:29.902Z,90.28
2018-06-19T04:58:30.124Z,90.28
2018-06-19T04:59:30.352Z,91.14
2018-06-19T05:00:30.358Z,90.56
2018-06-19T05:01:30.522Z,90.08
2018-06-19T05:02:30.827Z,90.56
2018-06-19T05:03:30.981Z,90.18
2018-06-19T05:04:31.190Z,89.70
2018-06-19T05:05:31.333Z,89.61
2018-06-19T05:06:31.750Z,89.22
2018-06-19T05:07:31.682Z,89.26
2018-06-19T05:08:32.012Z,88.79
2018-06-19T05:09:32.093Z,88.88
2018-06-19T05:10:32.239Z,88.59
2018-06-19T05:11:32.401Z,88.02
2018-06-19T05:12:32.688Z,87.82
2018-06-19T05:13:32.741Z,87.73
2018-06-19T05:14:33.014Z,87.73
2018-06-19T05:15:33.239Z,87.05
2018-06-19T05:16:33.363Z,87.25
2018-06-19T05:17:33.513Z,87.25
2018-06-19T05:18:33.610Z,86.91
2018-06-19T05:19:33.851Z,86.72
2018-06-19T05:20:33.944Z,86.62
2018-06-19T05:21:34.181Z,86.72
2018-06-19T05:22:34.357Z,86.52
2018-06-19T05:23:34.576Z,86.81
2018-06-19T05:24:34.715Z,86.72
2018-06-19T05:25:34.861Z,86.24
2018-06-19T05:26:35.091Z,86.09
2018-06-19T05:27:35.241Z,86.28
2018-06-19T05:28:35.451Z,86.09
2018-06-19T05:29:36.274Z,85.51
2018-06-19T05:30:35.795Z,85.13
2018-06-19T05:31:35.938Z,85.99
2018-06-19T05:32:36.154Z,85.32
2018-06-19T05:33:36.237Z,83.97
2018-06-19T05:34:36.456Z,83.78
2018-06-19T05:35:36.590Z,83.44
2018-06-19T05:36:36.855Z,82.76
2018-06-19T05:37:37.037Z,82.19
2018-06-19T05:38:37.245Z,82.19
2018-06-19T05:39:37.376Z,82.76
2018-06-19T05:40:37.563Z,80.94
2018-06-19T05:41:37.678Z,80.46
2018-06-19T05:42:37.897Z,79.88
2018-06-19T05:43:38.039Z,80.55
2018-06-19T05:44:38.222Z,79.88
2018-06-19T05:45:38.301Z,81.32
2018-06-19T05:46:38.568Z,81.04
2018-06-19T05:47:38.690Z,81.13
2018-06-19T05:48:38.893Z,80.88
2018-06-19T05:49:39.090Z,79.60
2018-06-19T05:50:39.227Z,79.05
2018-06-19T05:51:39.358Z,77.96
2018-06-19T05:52:39.564Z,78.00
2018-06-19T05:53:39.789Z,78.58
2018-06-19T05:54:39.960Z,78.58
2018-06-19T05:55:40.139Z,77.51
2018-06-19T05:56:40.314Z,77.71
2018-06-19T05:57:40.478Z,77.61
2018-06-19T05:58:40.625Z,76.07
2018-06-19T05:59:40.834Z,75.98
2018-06-19T06:00:40.925Z,77.13
2018-06-19T06:01:41.171Z,78.00
2018-06-19T06:02:41.279Z,78.19
2018-06-19T06:03:41.512Z,78.86
2018-06-19T06:04:41.686Z,78.58
2018-06-19T06:05:41.841Z,77.84
2018-06-19T06:06:41.982Z,78.61
2018-06-19T06:07:42.203Z,78.81
2018-06-19T06:08:42.377Z,77.84
2018-06-19T06:09:42.500Z,76.69
2018-06-19T06:10:42.648Z,76.31
2018-06-19T06:11:42.955Z,76.01
2018-06-19T06:12:43.129Z,75.73
2018-06-19T06:13:43.331Z,74.86
2018-06-19T06:14:43.449Z,76.01
2018-06-19T06:15:43.783Z,75.92
2018-06-19T06:16:44.151Z,76.44
2018-06-19T06:17:44.073Z,75.76
2018-06-19T06:18:44.191Z,74.22
2018-06-19T06:19:45.281Z,74.13
2018-06-19T06:20:45.279Z,73.74
2018-06-19T06:21:44.787Z,74.13
2018-06-19T06:22:44.887Z,74.07
2018-06-19T06:23:45.280Z,73.78
2018-06-19T06:25:03.728Z,73.58
2018-06-19T06:25:48.019Z,73.20
2018-06-19T06:26:51.560Z,73.20
2018-06-19T06:27:55.402Z,73.68
2018-06-19T06:28:51.215Z,73.78
2018-06-19T06:29:48.764Z,72.88
2018-06-19T06:30:47.648Z,74.32
2018-06-19T06:31:46.995Z,74.13
2018-06-19T06:32:48.335Z,74.07
2018-06-19T06:33:47.781Z,74.16
2018-06-19T06:34:48.541Z,73.30
2018-06-19T06:37:59.071Z,73.43
2018-06-19T06:39:02.535Z,73.57
2018-06-19T06:40:02.934Z,72.50
2018-06-19T06:41:00.759Z,71.25
2018-06-19T06:41:59.670Z,70.28
2018-06-19T06:43:00.156Z,71.25
2018-06-19T06:44:00.031Z,72.02
2018-06-19T06:45:00.232Z,71.83
2018-06-19T06:46:00.587Z,71.25
2018-06-19T06:47:00.909Z,72.06
2018-06-19T06:48:00.865Z,71.00
2018-06-19T06:49:01.171Z,70.32
2018-06-19T06:50:01.245Z,70.32
2018-06-19T06:51:01.460Z,71.28
2018-06-19T06:52:01.784Z,69.35
2018-06-19T06:53:01.873Z,68.68
2018-06-19T06:54:02.131Z,70.03
2018-06-19T06:55:02.141Z,70.42
2018-06-19T06:56:02.454Z,68.77
2018-06-19T06:57:02.669Z,69.74
2018-06-19T06:58:02.799Z,69.26
2018-06-19T06:59:03.176Z,70.42
2018-06-19T07:00:03.276Z,71.19
2018-06-19T07:01:03.666Z,70.32
2018-06-19T07:02:03.691Z,70.22
2018-06-19T07:03:03.923Z,70.13
2018-06-19T07:04:04.103Z,69.35
2018-06-19T07:05:05.285Z,70.90
2018-06-19T07:06:06.626Z,70.51
2018-06-19T07:07:05.915Z,69.39
2018-06-19T07:08:05.891Z,70.26
2018-06-19T07:09:08.544Z,69.87
2018-06-19T07:15:44.165Z,68.65
2018-06-19T07:16:44.317Z,70.00
2018-06-19T07:17:38.390Z,67.40
2018-06-19T07:19:37.235Z,68.52
2018-06-19T07:20:39.502Z,68.62
2018-06-19T07:21:37.487Z,68.46
2018-06-19T07:22:37.961Z,67.40
2018-06-19T07:23:37.828Z,68.65
2018-06-19T07:24:38.163Z,67.11
2018-06-19T07:25:39.983Z,68.75
2018-06-19T07:26:38.453Z,67.69
2018-06-19T07:29:39.171Z,67.11
2018-06-19T07:30:39.797Z,67.78
2018-06-19T07:31:39.626Z,68.65
2018-06-19T07:32:39.639Z,67.01
2018-06-19T07:33:41.445Z,66.14
2018-06-19T07:35:40.211Z,67.49
2018-06-19T07:36:40.854Z,68.46
2018-06-19T07:37:40.668Z,66.82
2018-06-19T07:38:39.733Z,66.82
2018-06-19T07:39:38.221Z,67.14
2018-06-19T07:40:39.163Z,65.69
2018-06-19T07:41:38.613Z,65.98
2018-06-19T07:42:38.843Z,65.30
2018-06-19T07:43:39.846Z,63.95
2018-06-19T07:44:39.304Z,64.63
2018-06-19T07:45:39.650Z,65.11
2018-06-19T07:46:39.637Z,65.30
2018-06-19T07:47:39.973Z,65.11
2018-06-19T07:48:40.158Z,65.37
2018-06-19T07:49:40.355Z,65.69
2018-06-19T07:50:40.530Z,65.98
2018-06-19T07:51:40.728Z,65.98
2018-06-19T07:52:41.388Z,65.98
2018-06-19T07:53:41.044Z,65.78
2018-06-19T07:54:41.600Z,65.78
2018-06-19T07:55:41.864Z,65.01
2018-06-19T07:56:41.726Z,64.43
2018-06-19T07:57:41.981Z,65.01
2018-06-19T07:58:44.431Z,64.56
2018-06-19T07:59:42.951Z,63.98
2018-06-19T08:00:42.577Z,63.24
2018-06-19T08:01:42.646Z,63.92
2018-06-19T08:02:42.979Z,63.43
2018-06-19T08:03:53.791Z,62.50
2018-06-19T08:04:43.682Z,61.53
2018-06-19T08:05:43.570Z,60.98
2018-06-19T08:06:43.949Z,60.59
2018-06-19T08:07:43.832Z,60.30
2018-06-19T08:08:44.313Z,60.40
2018-06-19T08:09:44.930Z,60.52
2018-06-19T08:10:45.802Z,60.14
2018-06-19T08:11:44.412Z,60.36
2018-06-19T08:12:45.424Z,59.84
2018-06-19T08:15:35.847Z,58.72
2018-06-19T08:19:58.783Z,59.69
2018-06-19T08:25:08.722Z,60.33
2018-06-19T08:25:56.033Z,60.91
2018-06-19T08:30:04.791Z,60.59
2018-06-19T08:30:58.566Z,61.66
2018-06-19T08:31:55.333Z,61.46
2018-06-19T08:32:59.418Z,62.40
2018-06-19T08:34:09.872Z,62.11
2018-06-19T08:34:55.007Z,61.72
2018-06-19T08:35:54.030Z,61.33
2018-06-19T08:36:53.858Z,62.01
2018-06-19T08:37:54.113Z,61.63
2018-06-19T08:38:54.366Z,60.75
2018-06-19T08:39:54.306Z,61.05
2018-06-19T08:40:54.654Z,62.14
2018-06-19T08:41:54.666Z,61.85
2018-06-19T08:42:54.815Z,61.66
2018-06-19T08:43:55.237Z,61.18
2018-06-19T08:44:55.262Z,61.18
2018-06-19T08:45:55.519Z,61.56
2018-06-19T08:46:55.827Z,62.24
2018-06-19T08:47:55.875Z,61.76
2018-06-19T08:48:56.079Z,60.59
2018-06-19T08:49:56.966Z,60.88
2018-06-19T08:50:56.281Z,62.14
2018-06-19T08:51:56.944Z,61.56
2018-06-19T08:52:57.050Z,60.88
2018-06-19T08:53:56.808Z,60.88
2018-06-19T08:54:58.297Z,61.24
2018-06-19T08:55:57.052Z,61.63
2018-06-19T08:56:57.253Z,61.43
2018-06-19T08:58:00.505Z,61.53
2018-06-19T08:58:57.553Z,62.11
2018-06-19T08:59:57.645Z,60.75
2018-06-19T09:00:58.240Z,61.63
2018-06-19T09:01:58.061Z,61.63
2018-06-19T09:02:58.357Z,61.66
2018-06-19T09:03:59.132Z,62.43
2018-06-19T09:04:58.753Z,60.50
2018-06-19T09:05:59.476Z,60.82
2018-06-19T09:06:59.022Z,62.37
2018-06-19T09:08:01.356Z,61.98
2018-06-19T09:08:59.336Z,60.91
2018-06-19T09:09:59.901Z,61.69
2018-06-19T09:10:59.499Z,60.14
2018-06-19T09:12:00.304Z,60.52
2018-06-19T09:13:01.315Z,60.91
2018-06-19T09:14:00.145Z,61.59
2018-06-19T09:15:00.589Z,61.14
2018-06-19T09:16:00.462Z,61.04
2018-06-19T09:17:01.318Z,59.88
2018-06-19T09:18:00.869Z,61.17
2018-06-19T09:19:01.547Z,60.49
2018-06-19T09:20:04.997Z,60.00
2018-06-19T09:21:01.589Z,59.23
2018-06-19T09:22:05.159Z,60.30
2018-06-19T09:23:01.985Z,60.81
2018-06-19T09:24:02.242Z,58.36
2018-06-19T09:25:02.226Z,60.97
2018-06-19T09:26:02.584Z,58.65
2018-06-19T09:27:04.824Z,60.10
2018-06-19T09:28:03.121Z,60.20
2018-06-19T09:29:02.977Z,60.68
2018-06-19T09:30:03.617Z,61.07
2018-06-19T09:31:05.242Z,61.36
2018-06-19T09:32:05.844Z,60.52
2018-06-19T09:33:06.520Z,58.36
2018-06-19T09:41:20.911Z,61.04
2018-06-19T09:42:22.208Z,60.75
2018-06-19T09:45:07.710Z,59.13
2018-06-19T09:46:17.866Z,60.20
2018-06-19T10:03:11.069Z,60.00
2018-06-19T10:05:12.820Z,59.33
2018-06-19T10:06:18.520Z,58.65
2018-06-19T10:07:12.939Z,59.81
2018-06-19T10:08:30.318Z,58.84
2018-06-19T10:09:14.504Z,59.23
2018-06-19T10:10:17.417Z,58.77
2018-06-19T12:04:59.470Z,63.31
2018-06-19T12:15:06.003Z,63.53
2018-06-19T12:21:50.300Z,61.11
2018-06-19T12:22:53.115Z,62.27
2018-06-19T12:30:29.258Z,63.53
2018-06-19T12:31:05.294Z,62.66
2018-06-19T12:33:23.982Z,62.85
2018-06-19T12:34:09.952Z,63.14
2018-06-19T12:36:08.148Z,62.59
2018-06-19T12:37:06.647Z,62.07
2018-06-19T12:38:07.818Z,62.56
2018-06-19T12:39:07.351Z,62.40
2018-06-19T12:40:07.008Z,60.94
2018-06-19T12:41:05.478Z,60.55
2018-06-19T12:42:05.146Z,60.65
2018-06-19T12:43:05.634Z,61.43
2018-06-19T12:44:05.960Z,61.52
2018-06-19T12:45:05.841Z,60.58
2018-06-19T12:46:05.873Z,60.78
2018-06-19T12:47:06.073Z,60.68
2018-06-19T12:48:06.266Z,61.17
2018-06-19T12:49:06.462Z,62.04
2018-06-19T12:50:06.869Z,60.94
2018-06-19T12:51:07.130Z,60.94
2018-06-19T12:52:07.072Z,61.72
2018-06-19T12:53:07.235Z,61.43
2018-06-19T12:54:07.522Z,62.56
2018-06-19T12:55:07.532Z,62.66
2018-06-19T12:56:07.819Z,63.92
2018-06-19T12:57:07.970Z,64.30
2018-06-19T12:58:08.059Z,65.05
2018-06-19T12:59:08.367Z,64.95
2018-06-19T13:00:08.610Z,64.95
2018-06-19T13:01:08.676Z,65.05
2018-06-19T13:02:08.888Z,64.66
2018-06-19T13:03:09.182Z,65.53
2018-06-19T13:04:09.205Z,63.49
2018-06-19T13:05:09.384Z,63.89
2018-06-19T13:06:09.639Z,63.89
2018-06-19T13:07:09.772Z,64.47
2018-06-19T13:08:09.975Z,65.01
2018-06-19T13:09:10.125Z,63.56
2018-06-19T13:10:10.360Z,65.79
2018-06-19T13:11:10.600Z,66.85
2018-06-19T13:12:10.656Z,67.14
2018-06-19T13:13:10.878Z,64.82
2018-06-19T13:14:11.034Z,64.82
2018-06-19T13:15:11.837Z,64.53
2018-06-19T13:16:11.401Z,64.98
2018-06-19T13:17:11.677Z,66.53
2018-06-19T13:18:11.899Z,67.01
2018-06-19T13:19:11.872Z,66.43
2018-06-19T13:20:12.082Z,66.82
2018-06-19T13:21:12.279Z,67.21
2018-06-19T13:22:12.530Z,67.21
2018-06-19T13:23:12.752Z,67.85
2018-06-19T13:24:12.951Z,67.46
2018-06-19T13:25:12.983Z,67.94
2018-06-19T13:26:14.343Z,68.24
2018-06-19T13:27:13.982Z,68.52
2018-06-19T13:28:13.631Z,68.62
2018-06-19T13:29:13.832Z,68.62
2018-06-19T13:30:14.267Z,68.49
2018-06-19T13:31:14.044Z,68.91
2018-06-19T13:32:15.581Z,68.52
2018-06-19T13:35:39.219Z,67.24
2018-06-19T13:37:27.243Z,66.69
2018-06-19T13:37:51.705Z,66.40
2018-06-19T13:38:37.416Z,66.20
2018-06-19T13:39:37.525Z,66.88
2018-06-19T13:41:42.543Z,66.69
2018-06-19T13:42:32.585Z,66.98
2018-06-19T13:43:30.765Z,65.95
2018-06-19T13:44:32.191Z,65.85
2018-06-19T13:45:28.564Z,65.47
2018-06-19T13:46:28.697Z,64.59
2018-06-19T13:47:28.435Z,64.50
2018-06-19T13:48:28.578Z,64.53
2018-06-19T13:49:28.491Z,64.43
2018-06-19T13:50:28.933Z,63.76
2018-06-19T13:51:29.196Z,63.21
2018-06-19T13:52:29.309Z,63.21
2018-06-19T13:53:29.226Z,64.17
2018-06-19T13:54:29.706Z,64.27
2018-06-19T13:55:29.665Z,63.98
2018-06-19T13:56:29.858Z,63.34
2018-06-19T13:57:29.946Z,63.72
2018-06-19T13:58:30.432Z,64.37
2018-06-19T13:59:30.448Z,63.40
2018-06-19T14:00:30.681Z,62.72
2018-06-19T14:01:32.531Z,63.21
2018-06-19T14:02:31.440Z,63.89
2018-06-19T14:03:31.760Z,64.27
2018-06-19T14:04:32.977Z,64.62
2018-06-19T14:05:33.376Z,65.50
2018-06-19T14:06:31.940Z,64.62
2018-06-19T14:07:32.152Z,64.53
2018-06-19T14:08:32.149Z,65.20
2018-06-19T14:09:32.297Z,65.98
2018-06-19T14:10:32.491Z,65.79
2018-06-19T14:11:32.791Z,65.98
2018-06-19T14:12:33.345Z,66.85
2018-06-19T14:13:33.135Z,65.88
2018-06-19T14:14:33.138Z,66.17
2018-06-19T14:15:34.211Z,65.88
2018-06-19T14:16:33.897Z,66.95
2018-06-19T14:17:33.982Z,67.08
2018-06-19T14:18:34.090Z,66.11
2018-06-19T14:19:34.184Z,66.88
2018-06-19T14:20:34.210Z,66.40
2018-06-19T14:21:34.644Z,66.43
2018-06-19T14:22:34.730Z,65.85
2018-06-19T14:23:34.803Z,64.89
2018-06-19T14:24:34.969Z,64.47
2018-06-19T14:25:35.450Z,64.01
2018-06-19T14:26:35.479Z,64.59
2018-06-19T14:27:36.489Z,63.14
2018-06-19T14:28:37.931Z,64.40
2018-06-19T14:29:36.015Z,64.59
2018-06-19T14:30:36.495Z,63.82
2018-06-19T14:31:37.077Z,64.40
2018-06-19T14:32:38.400Z,64.40
2018-06-19T14:37:52.982Z,64.30
2018-06-19T14:38:50.163Z,64.30
2018-06-19T14:39:45.339Z,64.69
2018-06-19T14:40:56.363Z,65.66
2018-06-19T14:41:42.067Z,65.47
2018-06-19T14:42:41.027Z,65.47
2018-06-19T14:43:41.467Z,64.89
2018-06-19T14:44:40.934Z,63.43
2018-06-19T14:45:38.900Z,62.37
2018-06-19T14:46:38.704Z,62.20
2018-06-19T14:47:39.289Z,61.79
2018-06-19T14:48:39.303Z,61.43
2018-06-19T14:49:40.481Z,61.33
2018-06-19T16:35:40.649Z,60.14
2018-06-19T16:36:40.651Z,60.14
2018-06-19T16:42:40.981Z,60.62
2018-06-19T16:45:09.375Z,61.27
2018-06-19T16:45:47.076Z,61.85
2018-06-19T16:46:40.844Z,62.14
2018-06-19T16:47:45.593Z,62.59
2018-06-19T16:48:40.703Z,62.59
2018-06-19T16:49:40.105Z,62.50
2018-06-19T16:50:40.089Z,63.18
2018-06-19T16:51:45.174Z,63.69
2018-06-19T17:15:35.171Z,62.53
2018-06-19T17:33:16.498Z,63.27
2018-06-19T17:33:53.309Z,63.66
2018-06-19T17:37:55.696Z,64.92
2018-06-19T17:41:57.131Z,63.46
2018-06-19T18:17:12.920Z,65.40
2018-06-19T18:18:16.298Z,65.43
2018-06-19T18:19:21.159Z,66.08
2018-06-19T18:20:12.257Z,66.66
2018-06-19T18:21:13.306Z,67.24
2018-06-19T18:22:12.659Z,67.04
2018-06-19T18:23:12.761Z,66.66
2018-06-19T18:24:13.235Z,67.24
2018-06-19T18:25:14.406Z,67.82
2018-06-19T18:27:22.039Z,67.52
2018-06-19T18:28:16.025Z,67.91
2018-06-19T18:29:12.923Z,68.17
2018-06-19T18:30:13.024Z,68.65
2018-06-19T18:31:12.280Z,68.55
2018-06-19T18:32:12.046Z,68.84
2018-06-19T18:33:12.269Z,69.23
2018-06-19T18:34:15.204Z,69.42
2018-06-19T18:39:14.186Z,69.81
2018-06-19T18:40:20.049Z,70.29
2018-06-19T18:42:13.245Z,70.68
2018-06-19T18:43:19.905Z,70.48
2018-06-19T18:44:36.421Z,70.68
2018-06-19T18:45:13.360Z,71.12
2018-06-19T18:46:14.276Z,71.12
2018-06-19T18:47:14.537Z,70.54
2018-06-19T18:48:14.251Z,70.45
2018-06-19T18:49:14.364Z,71.22
2018-06-19T18:50:14.518Z,71.61
2018-06-19T18:51:15.406Z,71.32
2018-06-19T18:52:23.956Z,71.12
2018-06-19T18:53:21.296Z,71.22
2018-06-19T18:54:17.905Z,72.00
2018-06-19T18:56:15.761Z,71.90
2018-06-19T18:57:18.240Z,72.19
2018-06-19T18:58:17.849Z,72.58
2018-06-19T18:59:16.299Z,72.09
2018-06-19T19:00:18.919Z,72.73
2018-06-19T19:01:18.412Z,73.21
2018-06-19T19:02:18.555Z,73.11
2018-06-19T19:04:16.431Z,73.21
2018-06-19T19:05:16.566Z,74.27
2018-06-19T19:06:19.183Z,73.79
2018-06-19T19:07:18.071Z,73.89
2018-06-19T19:08:18.019Z,74.18
2018-06-19T19:10:23.802Z,75.10
2018-06-19T19:11:20.790Z,74.82
2018-06-19T19:16:52.463Z,75.88
2018-06-19T19:19:52.480Z,76.51
2018-06-19T19:20:52.637Z,76.90
2018-06-19T19:21:52.797Z,76.61
2018-06-19T19:22:52.920Z,76.13
2018-06-19T19:23:53.220Z,76.80
2018-06-19T19:24:53.273Z,77.28
2018-06-19T19:27:54.014Z,77.48
2018-06-19T19:29:21.712Z,77.67
2018-06-19T19:51:53.259Z,80.19
2018-06-19T19:52:54.298Z,80.35
2018-06-19T19:54:57.062Z,80.92
2018-06-19T19:56:07.824Z,81.30
2018-06-19T19:57:17.717Z,81.50
2018-06-19T20:01:19.416Z,82.08
2018-06-19T20:02:19.697Z,82.52
2018-06-19T20:03:23.078Z,82.42
2018-06-19T20:05:24.224Z,83.09
2018-06-19T20:06:20.767Z,83.19
2018-06-19T20:07:22.039Z,83.19
2018-06-19T20:08:21.487Z,83.77
2018-06-19T20:09:20.607Z,84.63
2018-06-19T20:11:20.610Z,84.30
2018-06-19T20:12:21.383Z,84.11
2018-06-19T20:14:22.752Z,84.50
2018-06-19T20:15:22.378Z,84.88
2018-06-19T20:16:22.398Z,84.88
2018-06-19T20:18:21.926Z,85.07
2018-06-19T20:19:22.368Z,85.84
2018-06-19T20:20:22.327Z,86.22
2018-06-19T20:21:22.902Z,85.46
2018-06-19T20:22:24.628Z,86.09
2018-06-19T20:24:26.158Z,85.99
2018-06-19T20:25:26.296Z,86.18
2018-06-19T20:27:26.746Z,86.76
2018-06-19T20:28:28.461Z,86.85
2018-06-19T20:29:26.842Z,87.15
2018-06-19T20:30:24.275Z,86.85
2018-06-19T20:33:56.746Z,87.62
2018-06-19T20:34:56.098Z,87.43
2018-06-19T20:35:57.155Z,87.34
2018-06-19T20:36:57.131Z,87.24
2018-06-19T20:37:56.990Z,87.82
2018-06-19T20:38:57.220Z,88.10
2018-06-19T20:39:58.065Z,87.82
2018-06-19T20:42:31.440Z,87.82
2018-06-19T20:43:31.539Z,88.30
2018-06-19T20:44:32.128Z,88.64
2018-06-19T20:45:32.839Z,88.35
2018-06-19T20:46:32.196Z,88.54
2018-06-19T20:48:32.224Z,88.06
2018-06-19T20:49:34.086Z,88.83
2018-06-19T20:52:34.307Z,89.31
2018-06-19T20:54:32.720Z,89.12
2018-06-19T20:55:33.501Z,89.40
2018-06-19T20:56:34.269Z,89.12
2018-06-19T20:57:34.110Z,89.12
2018-06-19T20:58:34.322Z,88.93
2018-06-19T20:59:36.371Z,88.93
2018-06-19T21:00:34.216Z,89.17
2018-06-19T21:01:36.512Z,89.55
2018-06-19T21:02:35.575Z,89.84
2018-06-19T21:03:34.551Z,89.75
2018-06-19T21:04:35.119Z,90.52
2018-06-19T21:05:36.000Z,90.42
2018-06-19T21:06:35.814Z,90.22
2018-06-19T21:07:39.474Z,90.22
2018-06-19T21:08:36.264Z,90.61
2018-06-19T21:09:36.679Z,90.61
2018-06-19T21:10:35.607Z,90.13
2018-06-19T21:11:37.128Z,91.09
2018-06-19T21:12:36.304Z,90.90
2018-06-19T21:14:36.597Z,90.90
2018-06-19T21:15:38.650Z,90.95
2018-06-19T21:16:35.845Z,91.24
2018-06-19T21:17:41.063Z,91.33
2018-06-19T21:18:38.629Z,91.42
2018-06-19T21:19:38.416Z,91.72
2018-06-19T21:20:37.303Z,91.62
2018-06-19T21:21:37.637Z,91.52
2018-06-19T21:22:38.313Z,92.29
2018-06-19T21:23:38.039Z,92.29
2018-06-19T21:24:38.724Z,91.91
2018-06-19T21:25:37.949Z,92.10
2018-06-19T21:26:37.699Z,91.81
2018-06-19T21:27:35.875Z,92.00
2018-06-19T21:28:36.178Z,91.81
2018-06-19T21:29:36.299Z,91.81
2018-06-19T21:30:36.481Z,91.91
2018-06-19T21:31:36.693Z,91.72
2018-06-19T21:32:37.473Z,92.39
2018-06-19T21:33:37.408Z,92.39
2018-06-19T21:34:37.276Z,92.29
2018-06-19T21:35:38.564Z,92.34
2018-06-19T21:36:37.609Z,92.63
2018-06-19T21:37:39.440Z,93.35
2018-06-19T21:38:39.187Z,93.01
2018-06-19T21:39:38.654Z,92.68
2018-06-19T21:40:38.645Z,93.11
2018-06-19T21:41:39.902Z,92.91
2018-06-19T21:42:39.121Z,92.72
2018-06-19T21:43:39.043Z,92.63
2018-06-19T21:44:40.322Z,92.72
2018-06-19T21:45:39.722Z,93.68
2018-06-19T21:46:39.703Z,92.82
2018-06-19T21:47:40.239Z,93.40
2018-06-19T21:48:40.130Z,92.82
2018-06-19T21:49:40.147Z,93.59
